sensor_id;sensor_type;location;lat;lon;timestamp;P1;durP1;ratioP1;P2;durP2;ratioP2
39776;SDS011;25453;48.162;14.510;2022-12-11T00:00:55;9.98;;;5.03;;
39776;SDS011;25453;48.162;14.510;2022-12-11T00:03:22;11.13;;;4.68;;
39776;SDS011;25453;48.162;14.510;2022-12-11T00:05:56;12.02;;;4.82;;
39776;SDS011;25453;48.162;14.510;2022-12-11T00:08:30;10.75;;;4.70;;
39776;SDS011;25453;48.162;14.510;2022-12-11T00:13:44;13.80;;;6.15;;
39776;SDS011;25453;48.162;14.510;2022-12-11T00:16:11;12.35;;;5.72;;
39776;SDS011;25453;48.162;14.510;2022-12-11T00:18:51;13.57;;;5.95;;
39776;SDS011;25453;48.162;14.510;2022-12-11T00:21:19;16.13;;;5.28;;
39776;SDS011;25453;48.162;14.510;2022-12-11T00:23:52;13.05;;;5.43;;
39776;SDS011;25453;48.162;14.510;2022-12-11T00:26:26;13.63;;;5.95;;
39776;SDS011;25453;48.162;14.510;2022-12-11T00:29:00;12.15;;;4.97;;
39776;SDS011;25453;48.162;14.510;2022-12-11T00:31:28;13.13;;;5.70;;
39776;SDS011;25453;48.162;14.510;2022-12-11T00:34:02;13.80;;;5.03;;
39776;SDS011;25453;48.162;14.510;2022-12-11T00:36:36;12.82;;;5.18;;
39776;SDS011;25453;48.162;14.510;2022-12-11T00:39:10;14.93;;;5.32;;
39776;SDS011;25453;48.162;14.510;2022-12-11T00:41:44;10.93;;;4.20;;
39776;SDS011;25453;48.162;14.510;2022-12-11T00:44:18;10.93;;;4.30;;
39776;SDS011;25453;48.162;14.510;2022-12-11T00:46:45;12.40;;;4.80;;
39776;SDS011;25453;48.162;14.510;2022-12-11T00:49:20;12.07;;;5.07;;
39776;SDS011;25453;48.162;14.510;2022-12-11T00:51:54;11.05;;;4.75;;
39776;SDS011;25453;48.162;14.510;2022-12-11T00:54:21;11.57;;;4.43;;
39776;SDS011;25453;48.162;14.510;2022-12-11T00:56:55;12.38;;;5.18;;
39776;SDS011;25453;48.162;14.510;2022-12-11T00:59:22;12.45;;;4.95;;
39776;SDS011;25453;48.162;14.510;2022-12-11T01:01:56;11.52;;;4.80;;
39776;SDS011;25453;48.162;14.510;2022-12-11T01:04:23;12.43;;;4.72;;
39776;SDS011;25453;48.162;14.510;2022-12-11T01:06:57;10.35;;;5.22;;
39776;SDS011;25453;48.162;14.510;2022-12-11T01:09:24;14.52;;;5.35;;
39776;SDS011;25453;48.162;14.510;2022-12-11T01:12:16;9.85;;;4.13;;
39776;SDS011;25453;48.162;14.510;2022-12-11T01:14:43;12.18;;;5.32;;
39776;SDS011;25453;48.162;14.510;2022-12-11T01:17:17;8.45;;;3.97;;
39776;SDS011;25453;48.162;14.510;2022-12-11T01:19:54;14.60;;;5.03;;
39776;SDS011;25453;48.162;14.510;2022-12-11T01:22:29;13.57;;;5.50;;
39776;SDS011;25453;48.162;14.510;2022-12-11T01:25:03;13.52;;;4.57;;
39776;SDS011;25453;48.162;14.510;2022-12-11T01:27:31;11.68;;;4.95;;
39776;SDS011;25453;48.162;14.510;2022-12-11T01:29:58;11.75;;;5.03;;
39776;SDS011;25453;48.162;14.510;2022-12-11T01:32:31;14.27;;;4.65;;
39776;SDS011;25453;48.162;14.510;2022-12-11T01:34:59;13.43;;;4.95;;
39776;SDS011;25453;48.162;14.510;2022-12-11T01:37:43;10.90;;;4.50;;
39776;SDS011;25453;48.162;14.510;2022-12-11T01:40:18;13.23;;;5.20;;
39776;SDS011;25453;48.162;14.510;2022-12-11T01:42:53;11.52;;;4.25;;
39776;SDS011;25453;48.162;14.510;2022-12-11T01:45:29;12.10;;;5.30;;
39776;SDS011;25453;48.162;14.510;2022-12-11T01:48:28;16.90;;;5.85;;
39776;SDS011;25453;48.162;14.510;2022-12-11T01:51:07;10.85;;;4.50;;
39776;SDS011;25453;48.162;14.510;2022-12-11T01:53:42;14.43;;;5.95;;
39776;SDS011;25453;48.162;14.510;2022-12-11T01:56:14;12.20;;;5.22;;
39776;SDS011;25453;48.162;14.510;2022-12-11T01:58:51;13.68;;;4.85;;
39776;SDS011;25453;48.162;14.510;2022-12-11T02:01:39;11.30;;;4.75;;
39776;SDS011;25453;48.162;14.510;2022-12-11T02:04:19;10.95;;;5.13;;
39776;SDS011;25453;48.162;14.510;2022-12-11T02:06:47;11.57;;;4.95;;
39776;SDS011;25453;48.162;14.510;2022-12-11T02:09:23;13.30;;;4.72;;
39776;SDS011;25453;48.162;14.510;2022-12-11T02:17:36;13.82;;;4.82;;
39776;SDS011;25453;48.162;14.510;2022-12-11T02:20:22;12.15;;;5.40;;
39776;SDS011;25453;48.162;14.510;2022-12-11T02:31:03;11.13;;;5.10;;
39776;SDS011;25453;48.162;14.510;2022-12-11T02:36:45;16.58;;;5.90;;
39776;SDS011;25453;48.162;14.510;2022-12-11T02:39:31;16.15;;;6.32;;
39776;SDS011;25453;48.162;14.510;2022-12-11T02:42:08;18.48;;;5.30;;
39776;SDS011;25453;48.162;14.510;2022-12-11T02:44:37;15.15;;;5.60;;
39776;SDS011;25453;48.162;14.510;2022-12-11T02:47:14;15.95;;;5.50;;
39776;SDS011;25453;48.162;14.510;2022-12-11T02:49:43;13.10;;;5.40;;
39776;SDS011;25453;48.162;14.510;2022-12-11T02:52:20;12.05;;;5.50;;
39776;SDS011;25453;48.162;14.510;2022-12-11T02:54:51;11.20;;;4.97;;
39776;SDS011;25453;48.162;14.510;2022-12-11T02:57:41;14.10;;;5.95;;
39776;SDS011;25453;48.162;14.510;2022-12-11T03:00:14;15.43;;;5.55;;
39776;SDS011;25453;48.162;14.510;2022-12-11T03:02:48;18.07;;;6.40;;
39776;SDS011;25453;48.162;14.510;2022-12-11T03:05:15;12.48;;;5.20;;
39776;SDS011;25453;48.162;14.510;2022-12-11T03:07:49;14.90;;;6.00;;
39776;SDS011;25453;48.162;14.510;2022-12-11T03:10:17;17.77;;;6.82;;
39776;SDS011;25453;48.162;14.510;2022-12-11T03:12:46;12.68;;;5.32;;
39776;SDS011;25453;48.162;14.510;2022-12-11T03:15:25;11.40;;;4.28;;
39776;SDS011;25453;48.162;14.510;2022-12-11T03:18:45;16.65;;;5.38;;
39776;SDS011;25453;48.162;14.510;2022-12-11T03:21:48;16.63;;;5.68;;
39776;SDS011;25453;48.162;14.510;2022-12-11T03:30:16;19.25;;;6.43;;
39776;SDS011;25453;48.162;14.510;2022-12-11T03:32:49;15.40;;;5.45;;
39776;SDS011;25453;48.162;14.510;2022-12-11T03:35:25;12.25;;;4.43;;
39776;SDS011;25453;48.162;14.510;2022-12-11T03:38:08;12.07;;;5.07;;
39776;SDS011;25453;48.162;14.510;2022-12-11T03:40:55;13.13;;;5.30;;
39776;SDS011;25453;48.162;14.510;2022-12-11T03:43:32;14.55;;;4.85;;
39776;SDS011;25453;48.162;14.510;2022-12-11T03:46:00;13.07;;;5.00;;
39776;SDS011;25453;48.162;14.510;2022-12-11T03:48:36;14.98;;;6.35;;
39776;SDS011;25453;48.162;14.510;2022-12-11T03:51:07;13.70;;;5.63;;
39776;SDS011;25453;48.162;14.510;2022-12-11T03:53:41;13.77;;;5.43;;
39776;SDS011;25453;48.162;14.510;2022-12-11T03:58:44;15.40;;;5.90;;
39776;SDS011;25453;48.162;14.510;2022-12-11T04:01:18;13.30;;;5.82;;
39776;SDS011;25453;48.162;14.510;2022-12-11T04:03:46;12.65;;;5.65;;
39776;SDS011;25453;48.162;14.510;2022-12-11T04:06:19;13.45;;;5.28;;
39776;SDS011;25453;48.162;14.510;2022-12-11T04:08:46;12.55;;;4.32;;
39776;SDS011;25453;48.162;14.510;2022-12-11T04:11:20;12.13;;;4.68;;
39776;SDS011;25453;48.162;14.510;2022-12-11T04:14:03;13.05;;;5.10;;
39776;SDS011;25453;48.162;14.510;2022-12-11T04:16:58;12.70;;;5.50;;
39776;SDS011;25453;48.162;14.510;2022-12-11T04:19:26;11.85;;;5.28;;
39776;SDS011;25453;48.162;14.510;2022-12-11T04:22:18;11.43;;;5.10;;
39776;SDS011;25453;48.162;14.510;2022-12-11T04:25:18;18.10;;;6.93;;
39776;SDS011;25453;48.162;14.510;2022-12-11T04:27:45;14.27;;;5.60;;
39776;SDS011;25453;48.162;14.510;2022-12-11T04:30:23;12.30;;;4.88;;
39776;SDS011;25453;48.162;14.510;2022-12-11T04:32:59;14.80;;;5.88;;
39776;SDS011;25453;48.162;14.510;2022-12-11T04:35:32;17.10;;;7.22;;
39776;SDS011;25453;48.162;14.510;2022-12-11T04:38:06;17.38;;;7.05;;
39776;SDS011;25453;48.162;14.510;2022-12-11T04:40:46;17.33;;;7.05;;
39776;SDS011;25453;48.162;14.510;2022-12-11T04:43:13;19.88;;;7.70;;
39776;SDS011;25453;48.162;14.510;2022-12-11T04:45:40;21.83;;;8.52;;
39776;SDS011;25453;48.162;14.510;2022-12-11T04:48:14;23.80;;;7.90;;
39776;SDS011;25453;48.162;14.510;2022-12-11T04:50:41;17.80;;;8.65;;
39776;SDS011;25453;48.162;14.510;2022-12-11T04:53:15;17.65;;;7.38;;
39776;SDS011;25453;48.162;14.510;2022-12-11T04:55:42;22.33;;;9.05;;
39776;SDS011;25453;48.162;14.510;2022-12-11T04:58:16;24.33;;;8.93;;
39776;SDS011;25453;48.162;14.510;2022-12-11T05:00:43;19.13;;;7.32;;
39776;SDS011;25453;48.162;14.510;2022-12-11T05:03:17;25.20;;;8.63;;
39776;SDS011;25453;48.162;14.510;2022-12-11T05:05:48;19.15;;;7.80;;
39776;SDS011;25453;48.162;14.510;2022-12-11T05:08:24;20.52;;;8.57;;
39776;SDS011;25453;48.162;14.510;2022-12-11T05:10:58;22.23;;;8.25;;
39776;SDS011;25453;48.162;14.510;2022-12-11T05:13:36;23.35;;;9.10;;
39776;SDS011;25453;48.162;14.510;2022-12-11T05:16:04;22.17;;;9.52;;
39776;SDS011;25453;48.162;14.510;2022-12-11T05:21:06;22.83;;;9.20;;
39776;SDS011;25453;48.162;14.510;2022-12-11T05:23:42;20.80;;;8.95;;
39776;SDS011;25453;48.162;14.510;2022-12-11T05:26:11;19.10;;;7.45;;
39776;SDS011;25453;48.162;14.510;2022-12-11T05:28:50;21.25;;;8.27;;
39776;SDS011;25453;48.162;14.510;2022-12-11T05:31:25;20.67;;;8.10;;
39776;SDS011;25453;48.162;14.510;2022-12-11T05:33:53;22.95;;;8.40;;
39776;SDS011;25453;48.162;14.510;2022-12-11T05:36:33;21.00;;;8.38;;
39776;SDS011;25453;48.162;14.510;2022-12-11T05:39:13;23.17;;;8.40;;
39776;SDS011;25453;48.162;14.510;2022-12-11T05:41:40;23.08;;;9.75;;
39776;SDS011;25453;48.162;14.510;2022-12-11T05:44:14;23.67;;;9.07;;
39776;SDS011;25453;48.162;14.510;2022-12-11T05:46:48;21.40;;;9.38;;
39776;SDS011;25453;48.162;14.510;2022-12-11T05:49:22;22.95;;;9.43;;
39776;SDS011;25453;48.162;14.510;2022-12-11T05:51:56;22.35;;;8.90;;
39776;SDS011;25453;48.162;14.510;2022-12-11T05:54:29;23.05;;;9.40;;
39776;SDS011;25453;48.162;14.510;2022-12-11T05:57:03;20.35;;;8.70;;
39776;SDS011;25453;48.162;14.510;2022-12-11T05:59:30;24.88;;;10.15;;
39776;SDS011;25453;48.162;14.510;2022-12-11T06:02:05;24.33;;;8.55;;
39776;SDS011;25453;48.162;14.510;2022-12-11T06:04:38;22.45;;;8.13;;
39776;SDS011;25453;48.162;14.510;2022-12-11T06:07:05;22.42;;;7.88;;
39776;SDS011;25453;48.162;14.510;2022-12-11T06:09:32;22.52;;;8.95;;
39776;SDS011;25453;48.162;14.510;2022-12-11T06:12:06;19.73;;;7.82;;
39776;SDS011;25453;48.162;14.510;2022-12-11T06:14:33;19.23;;;7.45;;
39776;SDS011;25453;48.162;14.510;2022-12-11T06:17:07;20.08;;;8.50;;
39776;SDS011;25453;48.162;14.510;2022-12-11T06:19:34;24.23;;;8.65;;
39776;SDS011;25453;48.162;14.510;2022-12-11T06:22:02;24.65;;;9.00;;
39776;SDS011;25453;48.162;14.510;2022-12-11T06:24:36;23.17;;;8.68;;
39776;SDS011;25453;48.162;14.510;2022-12-11T06:27:03;22.48;;;8.55;;
39776;SDS011;25453;48.162;14.510;2022-12-11T06:29:37;21.63;;;7.78;;
39776;SDS011;25453;48.162;14.510;2022-12-11T06:32:04;19.13;;;8.25;;
39776;SDS011;25453;48.162;14.510;2022-12-11T06:34:38;19.63;;;7.85;;
39776;SDS011;25453;48.162;14.510;2022-12-11T06:37:12;23.00;;;8.88;;
39776;SDS011;25453;48.162;14.510;2022-12-11T06:39:53;17.70;;;7.63;;
39776;SDS011;25453;48.162;14.510;2022-12-11T06:42:20;23.77;;;7.78;;
39776;SDS011;25453;48.162;14.510;2022-12-11T06:44:53;21.13;;;7.60;;
39776;SDS011;25453;48.162;14.510;2022-12-11T06:47:29;18.48;;;7.60;;
39776;SDS011;25453;48.162;14.510;2022-12-11T06:50:05;17.92;;;7.30;;
39776;SDS011;25453;48.162;14.510;2022-12-11T06:52:39;22.17;;;8.10;;
39776;SDS011;25453;48.162;14.510;2022-12-11T06:55:06;20.33;;;7.50;;
39776;SDS011;25453;48.162;14.510;2022-12-11T06:57:40;20.53;;;8.73;;
39776;SDS011;25453;48.162;14.510;2022-12-11T07:00:14;25.42;;;9.95;;
39776;SDS011;25453;48.162;14.510;2022-12-11T07:02:42;23.80;;;8.05;;
39776;SDS011;25453;48.162;14.510;2022-12-11T07:05:15;22.08;;;8.98;;
39776;SDS011;25453;48.162;14.510;2022-12-11T07:07:42;19.88;;;8.55;;
39776;SDS011;25453;48.162;14.510;2022-12-11T07:10:16;22.70;;;7.85;;
39776;SDS011;25453;48.162;14.510;2022-12-11T07:12:53;17.90;;;7.80;;
39776;SDS011;25453;48.162;14.510;2022-12-11T07:15:20;23.58;;;9.07;;
39776;SDS011;25453;48.162;14.510;2022-12-11T07:17:54;25.48;;;8.55;;
39776;SDS011;25453;48.162;14.510;2022-12-11T07:20:21;20.42;;;8.43;;
39776;SDS011;25453;48.162;14.510;2022-12-11T07:22:55;20.75;;;8.05;;
39776;SDS011;25453;48.162;14.510;2022-12-11T07:25:22;19.60;;;8.60;;
39776;SDS011;25453;48.162;14.510;2022-12-11T07:27:56;18.13;;;7.72;;
39776;SDS011;25453;48.162;14.510;2022-12-11T07:30:30;20.13;;;7.73;;
39776;SDS011;25453;48.162;14.510;2022-12-11T07:32:57;21.48;;;7.70;;
39776;SDS011;25453;48.162;14.510;2022-12-11T07:35:33;22.13;;;7.97;;
39776;SDS011;25453;48.162;14.510;2022-12-11T07:38:07;18.90;;;7.38;;
39776;SDS011;25453;48.162;14.510;2022-12-11T07:40:41;17.40;;;8.02;;
39776;SDS011;25453;48.162;14.510;2022-12-11T07:43:21;18.90;;;7.47;;
39776;SDS011;25453;48.162;14.510;2022-12-11T07:45:48;15.38;;;7.10;;
39776;SDS011;25453;48.162;14.510;2022-12-11T07:48:22;19.35;;;8.02;;
39776;SDS011;25453;48.162;14.510;2022-12-11T07:50:49;18.17;;;6.85;;
39776;SDS011;25453;48.162;14.510;2022-12-11T07:53:23;17.35;;;6.65;;
39776;SDS011;25453;48.162;14.510;2022-12-11T07:55:51;20.35;;;8.75;;
39776;SDS011;25453;48.162;14.510;2022-12-11T07:58:24;21.73;;;8.02;;
39776;SDS011;25453;48.162;14.510;2022-12-11T08:00:51;17.15;;;6.97;;
39776;SDS011;25453;48.162;14.510;2022-12-11T08:03:25;19.10;;;7.63;;
39776;SDS011;25453;48.162;14.510;2022-12-11T08:05:59;20.30;;;7.85;;
39776;SDS011;25453;48.162;14.510;2022-12-11T08:08:32;20.55;;;7.22;;
39776;SDS011;25453;48.162;14.510;2022-12-11T08:11:00;16.05;;;6.85;;
39776;SDS011;25453;48.162;14.510;2022-12-11T08:13:35;19.67;;;7.90;;
39776;SDS011;25453;48.162;14.510;2022-12-11T08:16:07;20.25;;;7.93;;
39776;SDS011;25453;48.162;14.510;2022-12-11T08:18:44;19.05;;;7.68;;
39776;SDS011;25453;48.162;14.510;2022-12-11T08:23:50;18.63;;;7.85;;
39776;SDS011;25453;48.162;14.510;2022-12-11T08:26:20;18.08;;;7.45;;
39776;SDS011;25453;48.162;14.510;2022-12-11T08:28:56;19.10;;;7.50;;
39776;SDS011;25453;48.162;14.510;2022-12-11T08:31:32;16.83;;;7.07;;
39776;SDS011;25453;48.162;14.510;2022-12-11T08:33:59;17.42;;;7.53;;
39776;SDS011;25453;48.162;14.510;2022-12-11T08:36:33;23.42;;;9.13;;
39776;SDS011;25453;48.162;14.510;2022-12-11T08:39:07;22.85;;;8.13;;
39776;SDS011;25453;48.162;14.510;2022-12-11T08:41:40;17.70;;;8.43;;
39776;SDS011;25453;48.162;14.510;2022-12-11T08:44:14;20.27;;;7.90;;
39776;SDS011;25453;48.162;14.510;2022-12-11T08:46:42;22.35;;;8.43;;
39776;SDS011;25453;48.162;14.510;2022-12-11T08:49:16;20.70;;;8.07;;
39776;SDS011;25453;48.162;14.510;2022-12-11T08:51:43;21.42;;;8.35;;
39776;SDS011;25453;48.162;14.510;2022-12-11T08:54:17;21.55;;;7.70;;
39776;SDS011;25453;48.162;14.510;2022-12-11T08:56:44;18.02;;;7.35;;
39776;SDS011;25453;48.162;14.510;2022-12-11T08:59:23;19.73;;;7.43;;
39776;SDS011;25453;48.162;14.510;2022-12-11T09:01:57;17.35;;;7.20;;
39776;SDS011;25453;48.162;14.510;2022-12-11T09:04:24;19.58;;;7.97;;
39776;SDS011;25453;48.162;14.510;2022-12-11T09:06:58;18.35;;;7.78;;
39776;SDS011;25453;48.162;14.510;2022-12-11T09:09:25;12.65;;;5.20;;
39776;SDS011;25453;48.162;14.510;2022-12-11T09:11:59;17.15;;;5.43;;
39776;SDS011;25453;48.162;14.510;2022-12-11T09:14:26;18.73;;;6.45;;
39776;SDS011;25453;48.162;14.510;2022-12-11T09:17:00;14.82;;;6.20;;
39776;SDS011;25453;48.162;14.510;2022-12-11T09:19:29;16.73;;;6.45;;
39776;SDS011;25453;48.162;14.510;2022-12-11T09:22:02;14.95;;;6.47;;
39776;SDS011;25453;48.162;14.510;2022-12-11T09:24:29;18.05;;;6.90;;
39776;SDS011;25453;48.162;14.510;2022-12-11T09:27:03;17.48;;;7.13;;
39776;SDS011;25453;48.162;14.510;2022-12-11T09:29:37;18.13;;;6.68;;
39776;SDS011;25453;48.162;14.510;2022-12-11T09:32:05;22.45;;;9.02;;
39776;SDS011;25453;48.162;14.510;2022-12-11T09:34:49;17.20;;;6.65;;
39776;SDS011;25453;48.162;14.510;2022-12-11T09:37:29;17.38;;;6.78;;
39776;SDS011;25453;48.162;14.510;2022-12-11T09:40:02;14.15;;;7.47;;
39776;SDS011;25453;48.162;14.510;2022-12-11T09:42:48;19.45;;;6.93;;
39776;SDS011;25453;48.162;14.510;2022-12-11T09:45:35;17.02;;;6.15;;
39776;SDS011;25453;48.162;14.510;2022-12-11T09:48:02;14.10;;;6.43;;
39776;SDS011;25453;48.162;14.510;2022-12-11T09:50:36;19.35;;;6.82;;
39776;SDS011;25453;48.162;14.510;2022-12-11T09:55:50;16.85;;;7.00;;
39776;SDS011;25453;48.162;14.510;2022-12-11T09:58:45;17.65;;;7.47;;
39776;SDS011;25453;48.162;14.510;2022-12-11T10:09:38;20.70;;;8.45;;
39776;SDS011;25453;48.162;14.510;2022-12-11T10:16:00;20.13;;;7.53;;
39776;SDS011;25453;48.162;14.510;2022-12-11T10:18:42;16.88;;;6.82;;
39776;SDS011;25453;48.162;14.510;2022-12-11T10:21:16;15.15;;;6.93;;
39776;SDS011;25453;48.162;14.510;2022-12-11T10:23:45;19.60;;;6.65;;
39776;SDS011;25453;48.162;14.510;2022-12-11T10:26:26;20.85;;;7.50;;
39776;SDS011;25453;48.162;14.510;2022-12-11T10:28:58;18.08;;;7.22;;
39776;SDS011;25453;48.162;14.510;2022-12-11T10:31:42;15.85;;;6.85;;
39776;SDS011;25453;48.162;14.510;2022-12-11T10:34:12;16.75;;;6.45;;
39776;SDS011;25453;48.162;14.510;2022-12-11T10:36:51;17.33;;;6.43;;
39776;SDS011;25453;48.162;14.510;2022-12-11T10:39:34;14.52;;;6.13;;
39776;SDS011;25453;48.162;14.510;2022-12-11T10:42:13;19.85;;;6.95;;
39776;SDS011;25453;48.162;14.510;2022-12-11T10:44:54;16.55;;;7.65;;
39776;SDS011;25453;48.162;14.510;2022-12-11T10:47:31;18.27;;;7.05;;
39776;SDS011;25453;48.162;14.510;2022-12-11T10:50:05;15.03;;;7.50;;
39776;SDS011;25453;48.162;14.510;2022-12-11T10:55:19;17.77;;;7.15;;
39776;SDS011;25453;48.162;14.510;2022-12-11T10:57:58;17.45;;;7.40;;
39776;SDS011;25453;48.162;14.510;2022-12-11T11:00:39;16.52;;;8.18;;
39776;SDS011;25453;48.162;14.510;2022-12-11T11:03:20;15.55;;;6.80;;
39776;SDS011;25453;48.162;14.510;2022-12-11T11:05:49;17.95;;;8.05;;
39776;SDS011;25453;48.162;14.510;2022-12-11T11:08:55;17.45;;;6.88;;
39776;SDS011;25453;48.162;14.510;2022-12-11T11:11:32;19.15;;;7.93;;
39776;SDS011;25453;48.162;14.510;2022-12-11T11:14:04;20.20;;;7.40;;
39776;SDS011;25453;48.162;14.510;2022-12-11T11:16:47;16.25;;;6.38;;
39776;SDS011;25453;48.162;14.510;2022-12-11T11:22:07;13.25;;;6.07;;
39776;SDS011;25453;48.162;14.510;2022-12-11T11:24:44;16.27;;;6.72;;
39776;SDS011;25453;48.162;14.510;2022-12-11T11:30:03;18.30;;;6.70;;
39776;SDS011;25453;48.162;14.510;2022-12-11T11:32:45;17.17;;;6.72;;
39776;SDS011;25453;48.162;14.510;2022-12-11T11:35:21;20.52;;;7.15;;
39776;SDS011;25453;48.162;14.510;2022-12-11T11:38:08;15.55;;;7.72;;
39776;SDS011;25453;48.162;14.510;2022-12-11T11:40:59;15.27;;;6.88;;
39776;SDS011;25453;48.162;14.510;2022-12-11T11:43:44;18.15;;;7.75;;
39776;SDS011;25453;48.162;14.510;2022-12-11T11:46:28;19.70;;;7.80;;
39776;SDS011;25453;48.162;14.510;2022-12-11T11:49:19;23.08;;;7.07;;
39776;SDS011;25453;48.162;14.510;2022-12-11T12:00:54;20.77;;;7.93;;
39776;SDS011;25453;48.162;14.510;2022-12-11T12:03:28;13.52;;;5.90;;
39776;SDS011;25453;48.162;14.510;2022-12-11T12:14:30;13.60;;;5.82;;
39776;SDS011;25453;48.162;14.510;2022-12-11T12:40:35;15.02;;;6.63;;
39776;SDS011;25453;48.162;14.510;2022-12-11T12:46:20;15.57;;;6.97;;
39776;SDS011;25453;48.162;14.510;2022-12-11T12:49:04;17.38;;;6.65;;
39776;SDS011;25453;48.162;14.510;2022-12-11T12:51:45;23.45;;;6.78;;
39776;SDS011;25453;48.162;14.510;2022-12-11T12:54:14;17.48;;;6.38;;
39776;SDS011;25453;48.162;14.510;2022-12-11T12:56:50;14.65;;;6.07;;
39776;SDS011;25453;48.162;14.510;2022-12-11T12:59:24;12.50;;;6.57;;
39776;SDS011;25453;48.162;14.510;2022-12-11T13:02:00;14.40;;;6.47;;
39776;SDS011;25453;48.162;14.510;2022-12-11T13:04:40;16.10;;;6.50;;
39776;SDS011;25453;48.162;14.510;2022-12-11T13:07:27;16.27;;;7.22;;
39776;SDS011;25453;48.162;14.510;2022-12-11T13:10:06;17.20;;;7.10;;
39776;SDS011;25453;48.162;14.510;2022-12-11T13:12:54;18.60;;;8.48;;
39776;SDS011;25453;48.162;14.510;2022-12-11T13:15:38;16.77;;;6.53;;
39776;SDS011;25453;48.162;14.510;2022-12-11T13:18:30;20.30;;;8.43;;
39776;SDS011;25453;48.162;14.510;2022-12-11T13:23:52;19.48;;;7.22;;
39776;SDS011;25453;48.162;14.510;2022-12-11T13:26:30;13.23;;;6.75;;
39776;SDS011;25453;48.162;14.510;2022-12-11T13:29:05;16.27;;;7.03;;
39776;SDS011;25453;48.162;14.510;2022-12-11T13:32:01;16.27;;;6.45;;
39776;SDS011;25453;48.162;14.510;2022-12-11T13:34:58;17.02;;;6.97;;
39776;SDS011;25453;48.162;14.510;2022-12-11T13:37:31;16.23;;;7.32;;
39776;SDS011;25453;48.162;14.510;2022-12-11T13:40:16;19.58;;;7.05;;
39776;SDS011;25453;48.162;14.510;2022-12-11T13:43:02;15.68;;;7.07;;
39776;SDS011;25453;48.162;14.510;2022-12-11T13:51:19;17.27;;;7.85;;
39776;SDS011;25453;48.162;14.510;2022-12-11T13:54:04;18.92;;;7.00;;
39776;SDS011;25453;48.162;14.510;2022-12-11T13:56:56;16.95;;;7.63;;
39776;SDS011;25453;48.162;14.510;2022-12-11T13:59:32;18.60;;;7.53;;
39776;SDS011;25453;48.162;14.510;2022-12-11T14:02:11;16.95;;;7.38;;
39776;SDS011;25453;48.162;14.510;2022-12-11T14:04:54;17.52;;;6.93;;
39776;SDS011;25453;48.162;14.510;2022-12-11T14:07:36;14.20;;;5.78;;
39776;SDS011;25453;48.162;14.510;2022-12-11T14:10:15;15.35;;;7.03;;
39776;SDS011;25453;48.162;14.510;2022-12-11T14:18:00;14.95;;;6.38;;
39776;SDS011;25453;48.162;14.510;2022-12-11T14:20:35;16.70;;;6.60;;
39776;SDS011;25453;48.162;14.510;2022-12-11T14:25:54;17.40;;;7.32;;
39776;SDS011;25453;48.162;14.510;2022-12-11T14:28:24;14.48;;;5.53;;
39776;SDS011;25453;48.162;14.510;2022-12-11T14:30:59;11.48;;;5.30;;
39776;SDS011;25453;48.162;14.510;2022-12-11T14:33:39;16.13;;;5.88;;
39776;SDS011;25453;48.162;14.510;2022-12-11T14:36:16;12.32;;;5.97;;
39776;SDS011;25453;48.162;14.510;2022-12-11T14:38:59;13.75;;;6.10;;
39776;SDS011;25453;48.162;14.510;2022-12-11T14:44:21;15.80;;;6.35;;
39776;SDS011;25453;48.162;14.510;2022-12-11T14:46:59;13.68;;;5.82;;
39776;SDS011;25453;48.162;14.510;2022-12-11T14:52:19;13.35;;;5.53;;
39776;SDS011;25453;48.162;14.510;2022-12-11T14:55:19;12.13;;;5.07;;
39776;SDS011;25453;48.162;14.510;2022-12-11T15:00:58;14.52;;;5.75;;
39776;SDS011;25453;48.162;14.510;2022-12-11T15:03:45;12.25;;;4.78;;
39776;SDS011;25453;48.162;14.510;2022-12-11T15:09:07;13.10;;;5.55;;
39776;SDS011;25453;48.162;14.510;2022-12-11T15:12:41;12.20;;;5.43;;
39776;SDS011;25453;48.162;14.510;2022-12-11T15:15:14;12.38;;;4.95;;
39776;SDS011;25453;48.162;14.510;2022-12-11T15:17:49;14.52;;;4.97;;
39776;SDS011;25453;48.162;14.510;2022-12-11T15:20:22;11.82;;;4.80;;
39776;SDS011;25453;48.162;14.510;2022-12-11T15:22:59;13.50;;;5.97;;
39776;SDS011;25453;48.162;14.510;2022-12-11T15:25:28;13.38;;;5.88;;
39776;SDS011;25453;48.162;14.510;2022-12-11T15:30:31;11.70;;;5.65;;
39776;SDS011;25453;48.162;14.510;2022-12-11T15:36:44;10.95;;;4.97;;
39776;SDS011;25453;48.162;14.510;2022-12-11T15:38:56;14.52;;;6.22;;
39776;SDS011;25453;48.162;14.510;2022-12-11T15:41:48;15.45;;;5.95;;
39776;SDS011;25453;48.162;14.510;2022-12-11T15:44:19;13.77;;;6.47;;
39776;SDS011;25453;48.162;14.510;2022-12-11T15:46:54;13.13;;;5.85;;
39776;SDS011;25453;48.162;14.510;2022-12-11T15:49:28;13.07;;;5.53;;
39776;SDS011;25453;48.162;14.510;2022-12-11T15:51:55;16.45;;;6.43;;
39776;SDS011;25453;48.162;14.510;2022-12-11T15:54:29;16.15;;;6.05;;
39776;SDS011;25453;48.162;14.510;2022-12-11T15:57:05;11.75;;;5.30;;
39776;SDS011;25453;48.162;14.510;2022-12-11T15:59:38;12.82;;;5.78;;
39776;SDS011;25453;48.162;14.510;2022-12-11T16:02:11;13.57;;;5.32;;
39776;SDS011;25453;48.162;14.510;2022-12-11T16:04:38;12.68;;;5.05;;
39776;SDS011;25453;48.162;14.510;2022-12-11T16:07:16;13.13;;;5.85;;
39776;SDS011;25453;48.162;14.510;2022-12-11T16:09:52;12.23;;;5.53;;
39776;SDS011;25453;48.162;14.510;2022-12-11T16:12:19;17.35;;;6.32;;
39776;SDS011;25453;48.162;14.510;2022-12-11T16:14:53;15.18;;;5.82;;
39776;SDS011;25453;48.162;14.510;2022-12-11T16:17:20;12.00;;;5.28;;
39776;SDS011;25453;48.162;14.510;2022-12-11T16:19:54;10.80;;;5.60;;
39776;SDS011;25453;48.162;14.510;2022-12-11T16:22:28;13.10;;;5.63;;
39776;SDS011;25453;48.162;14.510;2022-12-11T16:24:56;11.73;;;5.75;;
39776;SDS011;25453;48.162;14.510;2022-12-11T16:27:30;16.47;;;5.50;;
39776;SDS011;25453;48.162;14.510;2022-12-11T16:30:04;13.45;;;6.05;;
39776;SDS011;25453;48.162;14.510;2022-12-11T16:32:32;12.18;;;5.53;;
39776;SDS011;25453;48.162;14.510;2022-12-11T16:35:06;17.85;;;6.55;;
39776;SDS011;25453;48.162;14.510;2022-12-11T16:37:40;14.70;;;6.47;;
39776;SDS011;25453;48.162;14.510;2022-12-11T16:40:22;15.77;;;4.90;;
39776;SDS011;25453;48.162;14.510;2022-12-11T16:42:57;18.77;;;6.10;;
39776;SDS011;25453;48.162;14.510;2022-12-11T16:45:25;10.35;;;4.18;;
39776;SDS011;25453;48.162;14.510;2022-12-11T16:48:01;13.13;;;5.28;;
39776;SDS011;25453;48.162;14.510;2022-12-11T16:50:29;12.40;;;5.85;;
39776;SDS011;25453;48.162;14.510;2022-12-11T16:53:07;15.27;;;5.82;;
39776;SDS011;25453;48.162;14.510;2022-12-11T16:55:39;13.43;;;5.65;;
39776;SDS011;25453;48.162;14.510;2022-12-11T16:58:17;11.60;;;4.93;;
39776;SDS011;25453;48.162;14.510;2022-12-11T17:00:48;12.90;;;5.90;;
39776;SDS011;25453;48.162;14.510;2022-12-11T17:03:21;15.48;;;5.90;;
39776;SDS011;25453;48.162;14.510;2022-12-11T17:05:48;15.10;;;5.35;;
39776;SDS011;25453;48.162;14.510;2022-12-11T17:08:23;17.20;;;6.25;;
39776;SDS011;25453;48.162;14.510;2022-12-11T17:10:51;12.85;;;5.50;;
39776;SDS011;25453;48.162;14.510;2022-12-11T17:13:24;12.93;;;5.57;;
39776;SDS011;25453;48.162;14.510;2022-12-11T17:15:55;11.38;;;5.25;;
39776;SDS011;25453;48.162;14.510;2022-12-11T17:18:29;15.27;;;5.55;;
39776;SDS011;25453;48.162;14.510;2022-12-11T17:21:04;14.82;;;5.55;;